Time;durP1;ratioP1;P1;durP2;ratioP2;P2;SDS_P1;SDS_P2;PMS_P1;PMS_P2;Temp;Humidity;BMP_temperature;BMP_pressure;BME280_temperature;BME280_humidity;BME280_pressure;Samples;Min_cycle;Max_cycle;Signal;HPM_P1;HPM_P2
2022/09/24 03:31:48;;;;;;;14.47;8.77;;;9.60;1.00;;;;;;5546397;25;20210;-87
2022/09/24 03:34:15;;;;;;;15.37;9.33;;;9.60;1.00;;;;;;5587340;25;20256;-86
2022/09/24 03:36:42;;;;;;;14.63;9.00;;;9.60;1.00;;;;;;5678920;25;20180;-86
2022/09/24 03:39:09;;;;;;;15.97;8.73;;;9.60;1.00;;;;;;5711709;25;20179;-87
2022/09/24 03:41:36;;;;;;;16.93;9.23;;;9.60;1.00;;;;;;5711877;25;20180;-87
2022/09/24 03:44:03;;;;;;;15.73;8.90;;;9.70;1.00;;;;;;5711604;25;20503;-87
2022/09/24 03:46:30;;;;;;;18.53;9.77;;;9.70;1.00;;;;;;5711996;25;20647;-87
2022/09/24 03:48:59;;;;;;;14.50;9.77;;;9.70;1.00;;;;;;5711937;25;20207;-87
2022/09/24 03:51:26;;;;;;;13.87;9.10;;;9.70;1.00;;;;;;5711479;25;20203;-88
2022/09/24 03:53:53;;;;;;;16.77;9.17;;;9.70;1.00;;;;;;5785006;24;20178;-86
2022/09/24 03:56:20;;;;;;;15.23;8.77;;;9.70;1.00;;;;;;5880144;24;20164;-87
2022/09/24 03:58:47;;;;;;;15.07;9.20;;;9.70;1.00;;;;;;5996381;23;20172;-87
2022/09/24 04:01:19;;;;;;;16.77;8.73;;;9.70;1.00;;;;;;6035553;23;20170;-87
2022/09/24 04:03:47;;;;;;;13.97;9.30;;;9.70;1.00;;;;;;6063797;23;20255;-87
2022/09/24 04:06:16;;;;;;;13.23;9.07;;;9.70;1.00;;;;;;6064118;23;20226;-87
2022/09/24 04:08:43;;;;;;;16.27;9.20;;;9.70;1.00;;;;;;6063872;23;20168;-87
2022/09/24 04:11:09;;;;;;;15.93;9.97;;;9.70;1.00;;;;;;6063874;23;20186;-86
2022/09/24 04:13:36;;;;;;;19.60;10.00;;;9.70;1.00;;;;;;6102719;23;20173;-87
2022/09/24 04:16:04;;;;;;;12.87;8.97;;;9.70;1.00;;;;;;6125060;23;20170;-88
2022/09/24 04:18:31;;;;;;;14.27;8.67;;;9.70;1.00;;;;;;6126717;23;20182;-87
2022/09/24 04:20:59;;;;;;;14.70;8.87;;;9.70;1.00;;;;;;6126733;23;20170;-87
2022/09/24 04:23:30;;;;;;;14.63;9.80;;;9.70;1.00;;;;;;6126708;23;20163;-88
2022/09/24 04:26:00;;;;;;;13.20;9.30;;;9.70;1.00;;;;;;6126369;23;20229;-88
2022/09/24 04:28:28;;;;;;;15.00;9.00;;;9.70;1.00;;;;;;6126216;23;20161;-87
2022/09/24 04:30:56;;;;;;;15.77;8.93;;;9.70;1.00;;;;;;6125997;23;20190;-88
2022/09/24 04:33:23;;;;;;;16.00;9.90;;;9.60;1.00;;;;;;6126741;23;20223;-86
2022/09/24 04:35:50;;;;;;;13.67;9.30;;;9.60;1.00;;;;;;6126100;23;20691;-87
2022/09/24 04:38:17;;;;;;;15.80;9.90;;;9.60;1.00;;;;;;6126716;23;20171;-87
2022/09/24 04:40:46;;;;;;;14.60;9.33;;;9.60;1.00;;;;;;6126725;23;20173;-88
2022/09/24 04:43:13;;;;;;;18.73;10.40;;;9.60;1.00;;;;;;6126581;23;20670;-87
2022/09/24 04:45:45;;;;;;;17.63;9.60;;;9.60;1.00;;;;;;6126410;23;20168;-87
2022/09/24 04:48:12;;;;;;;16.20;10.07;;;9.60;1.00;;;;;;6126016;23;20162;-86
2022/09/24 04:50:39;;;;;;;17.77;10.30;;;9.60;1.00;;;;;;6126341;23;20242;-88
2022/09/24 04:53:06;;;;;;;13.27;9.20;;;9.60;1.00;;;;;;6126426;23;20162;-86
2022/09/24 04:55:34;;;;;;;15.23;9.40;;;9.60;1.00;;;;;;6126519;23;20486;-88
2022/09/24 04:58:02;;;;;;;14.87;9.83;;;9.60;1.00;;;;;;6126416;23;20241;-87
2022/09/24 05:00:32;;;;;;;18.07;9.63;;;9.60;1.00;;;;;;6126077;23;20228;-87
2022/09/24 05:10:03;;;;;;;14.83;9.10;;;9.60;1.00;;;;;;6033442;23;20183;-91
2022/09/24 05:12:30;;;;;;;14.63;9.43;;;9.70;1.00;;;;;;6087924;23;20165;-88
2022/09/24 05:15:01;;;;;;;15.13;10.07;;;9.70;1.00;;;;;;6126319;23;20182;-90
2022/09/24 05:17:28;;;;;;;50.50;27.90;;;9.70;1.00;;;;;;6126023;23;20155;-86
2022/09/24 05:19:56;;;;;;;64.03;35.93;;;9.80;1.00;;;;;;6126266;23;20244;-87
2022/09/24 05:22:26;;;;;;;58.77;32.07;;;9.70;1.00;;;;;;6125770;23;20484;-86
2022/09/24 05:24:53;;;;;;;34.47;19.87;;;9.80;1.00;;;;;;6128464;23;20255;-88
2022/09/24 05:27:20;;;;;;;23.67;13.80;;;9.80;1.00;;;;;;6125579;23;20170;-87
2022/09/24 05:29:47;;;;;;;17.67;11.17;;;9.90;1.00;;;;;;6126122;23;20216;-86
2022/09/24 05:32:17;;;;;;;18.23;10.33;;;9.90;1.00;;;;;;6126194;23;20194;-86
2022/09/24 05:34:45;;;;;;;17.60;10.77;;;9.90;1.00;;;;;;6125967;23;20682;-86
2022/09/24 05:37:13;;;;;;;17.33;9.87;;;10.00;1.00;;;;;;6125745;23;20225;-86
2022/09/24 05:39:41;;;;;;;16.27;9.80;;;10.10;1.00;;;;;;6125789;23;20478;-86
2022/09/24 05:42:12;;;;;;;19.17;9.67;;;10.20;1.00;;;;;;6125534;23;20172;-87
2022/09/24 05:44:39;;;;;;;20.27;12.20;;;10.30;1.00;;;;;;6135028;23;20182;-86
2022/09/24 05:53:32;;;;;;;19.43;10.40;;;10.60;1.00;;;;;;6121786;23;20689;-88
2022/09/24 05:56:00;;;;;;;13.03;7.23;;;10.70;1.00;;;;;;6125658;23;20608;-86
2022/09/24 05:58:27;;;;;;;11.67;7.10;;;10.80;1.00;;;;;;6125660;23;20189;-87
2022/09/24 06:00:54;;;;;;;12.47;7.20;;;11.00;1.00;;;;;;6125314;23;20173;-87
2022/09/24 06:03:21;;;;;;;11.37;7.40;;;11.10;1.00;;;;;;6125803;23;20718;-87
2022/09/24 06:05:50;;;;;;;11.13;7.43;;;11.30;1.00;;;;;;6131197;23;20197;-89
2022/09/24 06:08:19;;;;;;;12.53;7.67;;;11.50;1.00;;;;;;6126127;23;20199;-88
2022/09/24 06:10:47;;;;;;;12.20;7.83;;;11.70;1.00;;;;;;6125584;23;20239;-85
2022/09/24 06:13:16;;;;;;;11.10;7.17;;;12.00;1.00;;;;;;6127473;23;20168;-89
2022/09/24 06:15:44;;;;;;;11.40;7.07;;;12.40;1.00;;;;;;6125982;23;20171;-88
2022/09/24 06:18:11;;;;;;;12.23;7.43;;;12.70;1.00;;;;;;6128575;23;20173;-87
2022/09/24 06:20:39;;;;;;;14.13;8.87;;;13.00;1.00;;;;;;6125267;23;20734;-87
2022/09/24 06:23:10;;;;;;;11.73;8.30;;;13.40;1.00;;;;;;6144236;23;20174;-93
2022/09/24 06:25:37;;;;;;;13.53;8.43;;;13.80;1.00;;;;;;6135441;23;20160;-87
2022/09/24 06:28:10;;;;;;;12.00;8.60;;;14.20;1.00;;;;;;6136801;23;20197;-92
2022/09/24 06:33:43;;;;;;;16.58;10.85;;;15.60;1.00;;;;;;6110674;23;20214;-89
2022/09/24 06:36:14;;;;;;;12.20;8.50;;;16.50;1.00;;;;;;6141584;23;20171;-92
2022/09/24 06:38:46;;;;;;;16.65;9.45;;;17.00;1.00;;;;;;6130339;23;20155;-90
2022/09/24 06:41:13;;;;;;;33.63;13.95;;;17.30;1.00;;;;;;6129357;23;20163;-85
2022/09/24 06:43:40;;;;;;;28.83;11.45;;;17.60;1.00;;;;;;6125906;23;20171;-88
2022/09/24 06:46:07;;;;;;;27.90;11.88;;;17.90;1.00;;;;;;6128003;23;20213;-87
2022/09/24 06:48:35;;;;;;;16.23;9.35;;;18.20;1.00;;;;;;6124494;23;20169;-87
2022/09/24 06:51:04;;;;;;;;;;;18.50;1.00;;;;;;6139518;23;20265;-92
2022/09/24 06:53:34;;;;;;;;;;;18.90;1.00;;;;;;6139099;23;20521;-92
2022/09/24 06:56:03;;;;;;;12.35;7.85;;;19.40;1.00;;;;;;6129504;23;20354;-89
2022/09/24 06:58:30;;;;;;;12.13;7.70;;;19.90;1.00;;;;;;6136881;23;20155;-93
2022/09/24 07:01:00;;;;;;;9.80;7.47;;;20.20;1.00;;;;;;6145376;23;20178;-89
2022/09/24 07:03:28;;;;;;;12.80;8.35;;;20.30;1.00;;;;;;6133162;23;20191;-87
2022/09/24 07:05:58;;;;;;;11.48;7.57;;;20.20;1.00;;;;;;6138772;23;20167;-88
2022/09/24 07:08:25;;;;;;;13.00;7.45;;;20.20;1.00;;;;;;6136007;23;20151;-90
2022/09/24 07:10:52;;;;;;;10.77;7.70;;;20.10;1.00;;;;;;6127706;23;20170;-88
2022/09/24 07:13:28;;;;;;;11.48;7.22;;;20.00;1.00;;;;;;6140375;23;20167;-91
2022/09/24 07:16:02;;;;;;;8.50;7.00;;;19.80;1.00;;;;;;6137078;23;20150;-92
2022/09/24 07:18:53;;;;;;;10.25;7.50;;;19.60;1.00;;;;;;6141898;23;20155;-91
2022/09/24 07:21:32;;;;;;;10.13;8.15;;;19.40;1.00;;;;;;6127318;23;20194;-93
2022/09/24 07:23:59;;;;;;;9.68;7.60;;;19.40;1.00;;;;;;6139314;23;20238;-86
2022/09/24 07:26:50;;;;;;;9.77;6.80;;;19.40;1.00;;;;;;6141333;23;20199;-94
2022/09/24 07:30:08;;;;;;;8.15;6.32;;;19.50;1.00;;;;;;6151245;23;20163;-91
2022/09/24 07:32:40;;;;;;;9.70;6.90;;;19.80;1.00;;;;;;6119689;23;20258;-92
2022/09/24 07:35:08;;;;;;;9.38;6.28;;;20.20;1.00;;;;;;6130675;23;20159;-88
2022/09/24 07:37:35;;;;;;;14.13;9.40;;;20.70;1.00;;;;;;6129222;23;20113;-86
2022/09/24 07:40:02;;;;;;;20.20;15.10;;;21.20;1.00;;;;;;6126434;23;20167;-87
2022/09/24 07:42:29;;;;;;;10.05;7.28;;;21.70;1.00;;;;;;6124670;23;20204;-87
2022/09/24 07:44:56;;;;;;;9.07;6.43;;;22.30;1.00;;;;;;6128332;23;20214;-88
2022/09/24 07:47:23;;;;;;;10.38;8.30;;;22.60;1.00;;;;;;6124077;23;20250;-88
2022/09/24 07:49:51;;;;;;;12.57;9.60;;;23.00;1.00;;;;;;6125538;23;20167;-86
2022/09/24 07:52:18;;;;;;;9.30;7.80;;;23.50;1.00;;;;;;6126288;23;20174;-86
2022/09/24 07:54:45;;;;;;;10.15;7.57;;;23.80;1.00;;;;;;6127050;23;20167;-86
2022/09/24 07:57:13;;;;;;;8.52;6.35;;;23.60;1.00;;;;;;6126730;23;20174;-86
2022/09/24 07:59:40;;;;;;;9.02;6.40;;;23.20;1.00;;;;;;6126853;23;20167;-85
2022/09/24 08:02:16;;;;;;;9.63;7.57;;;22.80;1.00;;;;;;6126324;23;20199;-86
2022/09/24 08:04:43;;;;;;;14.75;13.35;;;22.40;1.00;;;;;;6125805;23;20150;-88
2022/09/24 08:07:12;;;;;;;10.05;7.50;;;22.00;1.00;;;;;;6126629;23;20159;-87
2022/09/24 08:09:39;;;;;;;12.43;10.40;;;21.70;1.00;;;;;;6125544;23;20167;-87
2022/09/24 08:12:08;;;;;;;266.45;246.05;;;21.30;1.00;;;;;;6126761;23;20171;-88
2022/09/24 08:14:35;;;;;;;93.65;86.70;;;20.90;1.00;;;;;;6126970;23;20190;-87
2022/09/24 08:17:02;;;;;;;28.48;25.52;;;20.60;1.00;;;;;;6126381;23;20167;-88
2022/09/24 08:19:29;;;;;;;14.43;11.48;;;20.30;1.00;;;;;;6126938;23;20552;-87
2022/09/24 08:21:57;;;;;;;11.82;8.27;;;20.00;1.00;;;;;;6126360;23;20190;-87
2022/09/24 08:24:26;;;;;;;11.32;8.80;;;19.80;1.00;;;;;;6126791;23;20213;-88
2022/09/24 08:26:53;;;;;;;12.20;9.73;;;19.50;1.00;;;;;;6126813;23;20170;-87
2022/09/24 08:29:20;;;;;;;12.68;9.10;;;19.20;1.00;;;;;;6126562;23;20483;-88
2022/09/24 08:31:54;;;;;;;33.92;30.88;;;19.00;1.00;;;;;;6124249;23;20606;-88
2022/09/24 08:34:27;;;;;;;15.68;9.35;;;18.80;1.00;;;;;;6123762;23;20521;-88
2022/09/24 08:36:54;;;;;;;13.23;8.60;;;18.70;1.00;;;;;;6125160;23;20174;-89
2022/09/24 08:39:22;;;;;;;11.95;8.05;;;18.50;1.00;;;;;;6125078;23;20166;-88
2022/09/24 08:41:59;;;;;;;10.52;7.85;;;18.50;1.00;;;;;;6124124;23;20194;-89
2022/09/24 08:47:35;;;;;;;15.95;10.25;;;18.40;1.00;;;;;;6124926;23;20195;-89
2022/09/24 08:50:16;;;;;;;16.13;11.35;;;18.50;1.00;;;;;;6125705;23;20214;-86
2022/09/24 08:52:55;;;;;;;24.67;19.25;;;18.60;1.00;;;;;;6126684;23;20147;-86
2022/09/24 08:55:25;;;;;;;16.48;13.95;;;18.80;1.00;;;;;;6126729;23;20147;-88
2022/09/24 08:58:08;;;;;;;11.40;9.02;;;18.90;1.00;;;;;;6126873;23;20171;-86
2022/09/24 09:00:44;;;;;;;22.83;20.63;;;19.00;1.00;;;;;;6123850;23;20159;-89
2022/09/24 09:03:24;;;;;;;8.93;6.30;;;19.20;1.00;;;;;;6124255;23;20630;-87
2022/09/24 09:06:02;;;;;;;8.27;5.90;;;19.20;1.00;;;;;;6124290;23;20156;-89
2022/09/24 09:08:39;;;;;;;29.75;21.80;;;19.40;1.00;;;;;;6125083;23;20583;-88
2022/09/24 09:11:11;;;;;;;20.85;9.93;;;19.60;1.00;;;;;;6125511;23;20155;-89
2022/09/24 09:13:45;;;;;;;11.68;8.35;;;19.80;1.00;;;;;;6125268;23;20237;-87
2022/09/24 09:16:22;;;;;;;10.20;7.75;;;20.00;1.00;;;;;;6126178;23;20155;-88
2022/09/24 09:18:52;;;;;;;10.10;7.55;;;20.00;1.00;;;;;;6126332;23;20268;-87
2022/09/24 09:21:26;;;;;;;10.07;7.40;;;19.90;1.00;;;;;;6126111;23;20214;-87
2022/09/24 09:23:56;;;;;;;9.68;5.70;;;19.80;1.00;;;;;;6126295;23;20154;-87
2022/09/24 09:26:26;;;;;;;8.43;6.45;;;19.80;1.00;;;;;;6126762;23;20681;-87
2022/09/24 09:28:59;;;;;;;9.20;6.45;;;19.70;1.00;;;;;;6126487;23;20167;-86
2022/09/24 09:31:35;;;;;;;8.40;6.53;;;19.70;1.00;;;;;;6126024;23;20162;-87
2022/09/24 09:34:22;;;;;;;8.38;5.97;;;19.80;1.00;;;;;;6125828;23;20602;-86
2022/09/24 09:37:01;;;;;;;10.65;6.10;;;19.70;1.00;;;;;;6125577;23;20491;-87
2022/09/24 09:39:40;;;;;;;22.55;15.95;;;19.60;1.00;;;;;;6125898;23;20151;-87
2022/09/24 09:42:22;;;;;;;11.45;7.72;;;19.50;1.00;;;;;;6126141;23;20186;-87
2022/09/24 09:44:52;;;;;;;10.75;7.65;;;19.50;1.00;;;;;;6124866;23;20163;-87
2022/09/24 09:47:30;;;;;;;11.50;7.88;;;19.40;1.00;;;;;;6125680;23;20195;-87
2022/09/24 09:50:02;;;;;;;9.75;7.15;;;19.40;1.00;;;;;;6126271;23;20151;-86
2022/09/24 09:52:34;;;;;;;9.38;7.18;;;19.30;1.00;;;;;;6126354;23;20214;-87
2022/09/24 09:55:04;;;;;;;11.55;7.55;;;19.30;1.00;;;;;;6126195;23;20178;-87
2022/09/24 09:57:34;;;;;;;14.48;11.27;;;19.20;1.00;;;;;;6125763;23;20680;-86
2022/09/24 10:07:09;;;;;;;11.23;8.13;;;19.20;1.00;;;;;;5969690;24;20203;-89
2022/09/24 10:13:30;;;;;;;9.50;6.40;;;19.30;1.00;;;;;;6084108;23;20047;-89
2022/09/24 10:16:17;;;;;;;11.70;8.65;;;19.40;1.00;;;;;;6147976;23;20204;-88
2022/09/24 10:22:28;;;;;;;82.88;62.72;;;19.20;1.00;;;;;;6030862;23;20246;-87
2022/09/24 10:24:59;;;;;;;61.92;57.33;;;19.20;1.00;;;;;;6125912;23;20194;-86
2022/09/24 10:27:32;;;;;;;252.77;229.65;;;19.10;1.00;;;;;;6124964;23;20210;-86
2022/09/24 10:32:48;;;;;;;211.27;192.20;;;18.90;1.00;;;;;;6125188;23;20154;-86
2022/09/24 10:35:23;;;;;;;539.10;454.67;;;18.80;1.00;;;;;;6124843;23;20171;-87
2022/09/24 10:37:54;;;;;;;29.08;15.77;;;18.70;1.00;;;;;;6123771;23;20154;-86
2022/09/24 10:40:26;;;;;;;264.08;237.20;;;18.60;1.00;;;;;;6125638;23;20458;-87
2022/09/24 10:43:01;;;;;;;14.25;9.48;;;18.60;1.00;;;;;;6126000;23;20179;-86
2022/09/24 10:45:50;;;;;;;76.75;70.88;;;18.50;1.00;;;;;;6127095;23;20158;-87
2022/09/24 10:48:25;;;;;;;472.42;428.95;;;18.50;1.00;;;;;;6148266;23;20163;-90
2022/09/24 10:51:06;;;;;;;354.33;325.00;;;18.50;1.00;;;;;;6152126;23;20157;-90
2022/09/24 10:53:49;;;;;;;300.55;273.75;;;18.40;1.00;;;;;;6145981;23;20281;-89
2022/09/24 10:56:33;;;;;;;275.55;251.40;;;18.40;1.00;;;;;;6150379;23;20211;-89
2022/09/24 10:59:34;;;;;;;18.65;16.35;;;18.40;1.00;;;;;;6125960;23;20219;-94
2022/09/24 11:06:28;;;;;;;571.97;425.38;;;18.40;1.00;;;;;;6013449;23;20156;-91
2022/09/24 11:09:11;;;;;;;562.90;434.10;;;18.40;1.00;;;;;;6036267;23;20254;-90
2022/09/24 11:11:54;;;;;;;304.45;278.83;;;18.30;1.00;;;;;;6125248;23;20167;-89
2022/09/24 11:15:23;;;;;;;;;;;;;;;;;;;;;
2022/09/24 11:18:04;;;;;;;48.55;44.22;;;18.40;1.00;;;;;;6136626;23;20201;-89
2022/09/24 11:20:36;;;;;;;441.17;387.42;;;18.50;1.00;;;;;;6136595;23;20143;-89
2022/09/24 11:23:42;;;;;;;75.82;67.55;;;18.60;1.00;;;;;;6142690;23;20182;-93
2022/09/24 11:26:22;;;;;;;8.93;5.60;;;18.70;1.00;;;;;;6134010;23;20246;-92
2022/09/24 11:29:15;;;;;;;7.18;5.07;;;18.80;1.00;;;;;;6135695;23;20158;-89
2022/09/24 11:31:51;;;;;;;488.48;417.00;;;19.00;1.00;;;;;;6122457;23;20163;-90
2022/09/24 11:34:38;;;;;;;614.63;434.83;;;19.10;1.00;;;;;;6132138;23;20162;-92
2022/09/24 11:37:18;;;;;;;536.38;455.00;;;19.30;1.00;;;;;;6127804;23;20165;-89
2022/09/24 11:43:21;;;;;;;524.35;469.60;;;19.50;1.00;;;;;;6045591;23;20542;-91
2022/09/24 11:46:04;;;;;;;593.55;464.23;;;19.50;1.00;;;;;;6127693;23;20195;-89
2022/09/24 11:49:14;;;;;;;681.83;434.42;;;19.60;1.00;;;;;;6127527;23;20170;-89
2022/09/24 11:51:54;;;;;;;550.15;464.42;;;19.60;1.00;;;;;;6126893;23;20163;-89
2022/09/24 11:54:27;;;;;;;542.53;484.15;;;19.70;1.00;;;;;;6128086;23;20163;-89
2022/09/24 11:56:58;;;;;;;522.92;468.77;;;19.70;1.00;;;;;;6125774;23;20159;-89
2022/09/24 11:59:41;;;;;;;511.35;463.90;;;19.70;1.00;;;;;;6128588;23;20160;-93
2022/09/24 12:02:20;;;;;;;708.22;457.13;;;19.70;1.00;;;;;;6125435;23;20186;-90
2022/09/24 12:04:57;;;;;;;704.00;446.10;;;19.80;1.00;;;;;;6125682;23;20147;-90
2022/09/24 12:07:32;;;;;;;560.25;489.10;;;19.80;1.00;;;;;;6125871;23;20185;-91
2022/09/24 12:10:18;;;;;;;588.95;512.60;;;19.70;1.00;;;;;;6133521;23;20328;-93
2022/09/24 12:16:23;;;;;;;667.40;498.70;;;19.70;1.00;;;;;;6039151;23;20192;-92
2022/09/24 12:25:48;;;;;;;694.75;455.95;;;19.70;1.00;;;;;;6102532;23;20161;-92
2022/09/24 12:32:53;;;;;;;671.90;481.88;;;19.80;1.00;;;;;;6123239;23;20202;-89
2022/09/24 12:34:03;;;;;;;639.65;474.98;;;19.80;1.00;;;;;;6134239;23;20230;-88
2022/09/24 12:36:49;;;;;;;703.42;483.02;;;19.80;1.00;;;;;;6124344;23;20198;-88
2022/09/24 12:45:56;;;;;;;715.10;474.77;;;20.00;1.00;;;;;;6127741;23;20171;-92
2022/09/24 12:48:49;;;;;;;661.63;495.98;;;20.10;1.00;;;;;;6150099;23;20187;-94
2022/09/24 12:55:01;;;;;;;707.90;503.45;;;20.50;1.00;;;;;;6025873;23;20180;-92
2022/09/24 12:57:33;;;;;;;715.70;519.38;;;20.70;1.00;;;;;;6012640;23;20162;-93
2022/09/24 13:02:47;;;;;;;720.63;529.35;;;20.70;1.00;;;;;;6112373;23;20195;-90
2022/09/24 13:06:12;;;;;;;727.13;515.10;;;20.60;1.00;;;;;;6140940;23;20167;-93
2022/09/24 13:08:42;;;;;;;709.42;479.50;;;20.60;1.00;;;;;;6137802;23;20222;-93
2022/09/24 13:21:59;;;;;;;711.80;488.13;;;20.60;1.00;;;;;;5927184;24;20209;-95
2022/09/24 13:28:10;;;;;;;705.50;473.63;;;20.50;1.00;;;;;;5846389;24;20204;-93
2022/09/24 13:30:54;;;;;;;696.10;453.27;;;20.50;1.00;;;;;;5858375;24;20180;-90
2022/09/24 13:34:40;;;;;;;717.03;496.30;;;20.50;1.00;;;;;;5948869;23;20165;-94
2022/09/24 14:26:51;;;;;;;691.57;433.03;;;19.90;1.00;;;;;;5802591;24;20204;-96
2022/09/24 14:29:55;;;;;;;683.60;417.63;;;19.90;1.00;;;;;;5866096;24;20162;-94
2022/09/24 14:46:48;;;;;;;677.97;399.10;;;19.60;1.00;;;;;;5877185;24;20173;-91
2022/09/24 14:50:07;;;;;;;680.20;397.30;;;19.40;1.00;;;;;;5922593;24;20172;-87
2022/09/24 14:53:22;;;;;;;;;;;;;;;;;;;;;
2022/09/24 14:56:49;;;;;;;649.40;361.03;;;19.30;1.00;;;;;;6005175;23;20178;-95
2022/09/24 15:06:18;;;;;;;650.87;362.77;;;18.80;1.00;;;;;;5871989;24;20208;-89
2022/09/24 15:38:14;;;;;;;617.47;308.33;;;17.90;1.00;;;;;;5898505;24;20173;-89
2022/09/24 15:40:42;;;;;;;626.10;340.93;;;17.80;1.00;;;;;;5924018;24;20258;-90
2022/09/24 15:43:21;;;;;;;624.37;337.67;;;17.70;1.00;;;;;;6072382;23;20170;-89
2022/09/24 15:49:20;;;;;;;607.73;313.57;;;17.60;1.00;;;;;;6126886;23;20199;-88
2022/09/24 15:52:54;;;;;;;611.50;313.93;;;17.50;1.00;;;;;;6130778;23;20165;-90
2022/09/24 16:05:38;;;;;;;704.77;555.13;;;16.90;1.00;;;;;;6038936;23;20193;-94
2022/09/24 16:12:29;;;;;;;;;;;;;;;;;;;;;
2022/09/24 16:18:46;;;;;;;116.45;52.78;;;16.40;1.00;;;;;;6061359;23;20636;-89
2022/09/24 16:21:51;;;;;;;428.83;382.00;;;16.30;1.00;;;;;;6132865;23;20197;-96
2022/09/24 16:41:50;;;;;;;360.07;292.30;;;15.80;1.00;;;;;;5991907;23;20160;-89
2022/09/24 16:44:18;;;;;;;45.17;40.97;;;15.70;1.00;;;;;;6101560;23;20614;-89
2022/09/24 16:46:45;;;;;;;349.67;296.40;;;15.70;1.00;;;;;;6126856;23;20173;-89
2022/09/24 16:49:13;;;;;;;86.50;78.60;;;15.70;1.00;;;;;;6126801;23;20170;-88
2022/09/24 16:51:40;;;;;;;126.77;113.83;;;15.60;1.00;;;;;;6126430;23;20609;-89
2022/09/24 16:54:07;;;;;;;181.07;161.87;;;15.60;1.00;;;;;;6126313;23;20175;-88
2022/09/24 16:56:36;;;;;;;199.73;182.83;;;15.50;1.00;;;;;;6125758;23;20165;-89
2022/09/24 16:59:04;;;;;;;190.73;173.60;;;15.50;1.00;;;;;;6125920;23;20479;-88
2022/09/24 17:01:32;;;;;;;80.67;73.93;;;15.50;1.00;;;;;;6125580;23;20431;-89
2022/09/24 17:03:59;;;;;;;215.53;193.93;;;15.40;1.00;;;;;;6126747;23;20631;-89
2022/09/24 17:06:28;;;;;;;229.57;208.40;;;15.40;1.00;;;;;;6126548;23;20169;-88
2022/09/24 17:11:41;;;;;;;274.83;249.40;;;15.30;1.00;;;;;;6126422;23;20157;-89
2022/09/24 17:14:11;;;;;;;383.60;322.13;;;15.20;1.00;;;;;;6128148;23;20246;-88
2022/09/24 17:16:38;;;;;;;296.90;267.90;;;15.20;1.00;;;;;;6126991;23;20218;-88
2022/09/24 17:19:06;;;;;;;188.03;172.20;;;15.10;1.00;;;;;;6126486;23;20171;-89
2022/09/24 17:21:34;;;;;;;117.70;108.80;;;15.10;1.00;;;;;;6126238;23;20537;-88
2022/09/24 17:24:01;;;;;;;151.47;139.07;;;15.00;1.00;;;;;;6124053;23;20533;-88
2022/09/24 17:26:28;;;;;;;84.57;78.47;;;15.00;1.00;;;;;;6124113;23;20237;-88
2022/09/24 17:28:56;;;;;;;86.53;80.50;;;15.00;1.00;;;;;;6124275;23;20172;-89
2022/09/24 17:31:26;;;;;;;153.13;142.20;;;14.90;1.00;;;;;;6124420;23;20251;-89
2022/09/24 17:33:57;;;;;;;134.83;122.60;;;14.80;1.00;;;;;;6123577;23;20508;-88
2022/09/24 17:36:26;;;;;;;101.03;93.97;;;14.80;1.00;;;;;;6125170;23;20163;-90
2022/09/24 17:38:55;;;;;;;171.43;158.73;;;14.80;1.00;;;;;;6124193;23;20287;-90
2022/09/24 17:41:23;;;;;;;111.00;102.93;;;14.70;1.00;;;;;;6125155;23;20212;-90
2022/09/24 17:43:50;;;;;;;121.67;112.83;;;14.70;1.00;;;;;;6125804;23;20189;-90
2022/09/24 17:46:21;;;;;;;140.87;130.43;;;14.70;1.00;;;;;;6126285;23;20166;-90
2022/09/24 17:48:51;;;;;;;190.03;175.63;;;14.70;1.00;;;;;;6124585;23;20228;-90
2022/09/24 17:51:20;;;;;;;253.13;231.87;;;14.60;1.00;;;;;;6124454;23;20172;-89
2022/09/24 17:53:49;;;;;;;277.67;253.97;;;14.60;1.00;;;;;;6122615;23;20178;-89
2022/09/24 17:56:16;;;;;;;187.13;143.03;;;14.60;1.00;;;;;;6124668;23;20181;-90
2022/09/24 17:58:46;;;;;;;111.97;103.63;;;14.60;1.00;;;;;;6124782;23;20226;-90
2022/09/24 18:01:16;;;;;;;86.27;78.63;;;14.60;1.00;;;;;;6125795;23;20198;-90
2022/09/24 18:03:43;;;;;;;61.93;57.23;;;14.60;1.00;;;;;;6125975;23;20273;-90
2022/09/24 18:06:14;;;;;;;75.03;69.27;;;14.50;1.00;;;;;;6125585;23;20225;-89
2022/09/24 18:08:42;;;;;;;63.37;58.10;;;14.50;1.00;;;;;;6125489;23;20162;-90
2022/09/24 18:11:12;;;;;;;161.10;143.43;;;14.50;1.00;;;;;;6125971;23;20167;-91
2022/09/24 18:13:39;;;;;;;45.70;41.40;;;14.40;1.00;;;;;;6113508;23;20165;-90
2022/09/24 18:16:08;;;;;;;90.73;84.23;;;14.40;1.00;;;;;;6125950;23;20166;-90
2022/09/24 18:18:36;;;;;;;48.10;44.63;;;14.40;1.00;;;;;;6125700;23;20461;-90
2022/09/24 18:21:05;;;;;;;167.90;140.03;;;14.40;1.00;;;;;;6126172;23;20178;-91
2022/09/24 18:23:34;;;;;;;446.27;277.97;;;14.40;1.00;;;;;;6125952;23;20232;-90
2022/09/24 18:26:10;;;;;;;15.47;14.23;;;14.40;1.00;;;;;;6125801;23;20241;-91
2022/09/24 18:28:38;;;;;;;89.17;79.43;;;14.40;1.00;;;;;;6125721;23;20371;-91
2022/09/24 18:31:06;;;;;;;280.67;252.10;;;14.30;1.00;;;;;;6125723;23;20170;-91
2022/09/24 18:33:33;;;;;;;128.80;115.07;;;14.30;1.00;;;;;;6126142;23;20531;-91
2022/09/24 18:36:05;;;;;;;67.70;46.10;;;14.20;1.00;;;;;;6125744;23;20181;-91
2022/09/24 18:38:34;;;;;;;135.20;89.00;;;14.20;1.00;;;;;;6125854;23;20169;-91
2022/09/24 18:41:06;;;;;;;295.33;176.23;;;14.20;1.00;;;;;;6124240;23;20166;-90
2022/09/24 18:43:33;;;;;;;167.97;114.90;;;14.20;1.00;;;;;;6125674;23;20162;-89
2022/09/24 18:46:03;;;;;;;270.60;245.20;;;14.10;1.00;;;;;;6125734;23;20268;-89
2022/09/24 18:48:31;;;;;;;399.70;253.33;;;14.10;1.00;;;;;;6125937;23;20159;-90
2022/09/24 18:50:58;;;;;;;146.90;135.60;;;14.10;1.00;;;;;;6125867;23;20166;-89
2022/09/24 18:53:30;;;;;;;35.33;32.70;;;14.00;1.00;;;;;;6125835;23;20613;-89
2022/09/24 18:55:59;;;;;;;47.13;43.93;;;14.00;1.00;;;;;;6125960;23;20177;-88
2022/09/24 18:58:26;;;;;;;97.60;90.07;;;14.00;1.00;;;;;;6125051;23;20681;-89
2022/09/24 19:00:58;;;;;;;104.30;93.57;;;14.00;1.00;;;;;;6124906;23;20172;-89
2022/09/24 19:03:29;;;;;;;96.20;88.47;;;13.90;1.00;;;;;;6125180;23;20196;-89
2022/09/24 19:06:03;;;;;;;102.60;92.67;;;13.90;1.00;;;;;;6125639;23;20188;-89
2022/09/24 19:08:32;;;;;;;39.87;36.73;;;13.90;1.00;;;;;;6125518;23;20231;-88
2022/09/24 19:11:08;;;;;;;18.60;16.73;;;13.90;1.00;;;;;;6124476;23;20166;-90
2022/09/24 19:13:36;;;;;;;66.80;50.00;;;13.90;1.00;;;;;;6125595;23;20631;-89
2022/09/24 19:16:06;;;;;;;40.63;37.80;;;13.90;1.00;;;;;;6125425;23;20834;-89
2022/09/24 19:18:35;;;;;;;30.50;24.23;;;13.90;1.00;;;;;;6125830;23;20157;-91
2022/09/24 19:21:05;;;;;;;102.43;92.33;;;13.80;1.00;;;;;;6125333;23;20180;-90
2022/09/24 19:23:36;;;;;;;75.37;70.13;;;13.80;1.00;;;;;;6125545;23;20184;-89
2022/09/24 19:26:06;;;;;;;231.43;162.07;;;13.80;1.00;;;;;;6124843;23;20211;-89
2022/09/24 19:28:34;;;;;;;70.33;57.83;;;13.80;1.00;;;;;;6125106;23;20152;-88
2022/09/24 19:31:02;;;;;;;42.87;26.40;;;13.80;1.00;;;;;;6124597;23;20498;-88
2022/09/24 19:33:32;;;;;;;11.47;10.37;;;13.80;1.00;;;;;;6124664;23;20829;-89
2022/09/24 19:36:01;;;;;;;21.70;19.77;;;13.70;1.00;;;;;;6124922;23;20175;-89
2022/09/24 19:38:31;;;;;;;92.23;65.77;;;13.70;1.00;;;;;;6123787;23;20176;-90
2022/09/24 19:41:00;;;;;;;48.83;43.93;;;13.70;1.00;;;;;;6124235;23;20503;-88
2022/09/24 19:43:29;;;;;;;33.83;30.50;;;13.70;1.00;;;;;;6124272;23;20169;-88
2022/09/24 19:45:58;;;;;;;37.57;32.57;;;13.70;1.00;;;;;;6123677;23;20453;-89
2022/09/24 19:48:25;;;;;;;30.57;16.20;;;13.70;1.00;;;;;;6126821;23;20219;-89
2022/09/24 19:50:54;;;;;;;74.67;47.73;;;13.70;1.00;;;;;;6127229;23;20244;-90
2022/09/24 19:53:22;;;;;;;60.17;32.60;;;13.60;1.00;;;;;;6127886;23;20222;-89
2022/09/24 19:55:49;;;;;;;76.53;68.80;;;13.60;1.00;;;;;;6128117;23;20165;-90
2022/09/24 19:58:16;;;;;;;89.83;82.30;;;13.60;1.00;;;;;;6126252;23;20471;-90
2022/09/24 20:00:45;;;;;;;219.83;197.30;;;13.60;1.00;;;;;;6126248;23;20212;-88
2022/09/24 20:03:12;;;;;;;255.80;228.80;;;13.50;1.00;;;;;;6127333;23;20196;-89
2022/09/24 20:05:42;;;;;;;306.23;273.90;;;13.50;1.00;;;;;;6126064;23;20187;-88
2022/09/24 20:08:11;;;;;;;205.93;185.33;;;13.50;1.00;;;;;;6126396;23;20179;-90
2022/09/24 20:10:39;;;;;;;224.60;203.50;;;13.50;1.00;;;;;;6126809;23;20457;-89
2022/09/24 20:13:09;;;;;;;213.63;194.37;;;13.50;1.00;;;;;;6126930;23;20164;-89
2022/09/24 20:15:37;;;;;;;181.50;164.50;;;13.50;1.00;;;;;;6127260;23;20247;-89
2022/09/24 20:18:06;;;;;;;193.60;175.87;;;13.50;1.00;;;;;;6127037;23;20164;-90
2022/09/24 20:20:33;;;;;;;267.40;242.27;;;13.50;1.00;;;;;;6126944;23;20241;-90
2022/09/24 20:23:01;;;;;;;392.60;309.73;;;13.40;1.00;;;;;;6127359;23;20168;-90
2022/09/24 20:28:14;;;;;;;361.30;298.70;;;13.40;1.00;;;;;;6127307;23;20738;-91
2022/09/24 20:30:42;;;;;;;247.80;223.07;;;13.40;1.00;;;;;;6127348;23;20164;-90